sensor_id;sensor_type;location;lat;lon;timestamp;P1;durP1;ratioP1;P2;durP2;ratioP2
14203;SDS011;7185;51.854;6.622;2023-01-08T00:00:56;3.30;;;2.00;;
14203;SDS011;7185;51.854;6.622;2023-01-08T00:03:28;3.25;;;2.00;;
14203;SDS011;7185;51.854;6.622;2023-01-08T00:06:00;3.08;;;1.75;;
14203;SDS011;7185;51.854;6.622;2023-01-08T00:08:32;3.67;;;2.13;;
14203;SDS011;7185;51.854;6.622;2023-01-08T00:11:04;4.60;;;2.30;;
14203;SDS011;7185;51.854;6.622;2023-01-08T00:13:36;3.38;;;1.98;;
14203;SDS011;7185;51.854;6.622;2023-01-08T00:16:11;5.93;;;2.08;;
14203;SDS011;7185;51.854;6.622;2023-01-08T00:18:44;3.33;;;2.10;;
14203;SDS011;7185;51.854;6.622;2023-01-08T00:21:16;4.65;;;1.80;;
14203;SDS011;7185;51.854;6.622;2023-01-08T00:23:48;3.58;;;2.17;;
14203;SDS011;7185;51.854;6.622;2023-01-08T00:26:19;4.03;;;2.10;;
14203;SDS011;7185;51.854;6.622;2023-01-08T00:28:51;3.95;;;1.77;;
14203;SDS011;7185;51.854;6.622;2023-01-08T00:31:24;6.10;;;1.90;;
14203;SDS011;7185;51.854;6.622;2023-01-08T00:33:55;4.18;;;1.98;;
14203;SDS011;7185;51.854;6.622;2023-01-08T00:36:27;3.63;;;1.90;;
14203;SDS011;7185;51.854;6.622;2023-01-08T00:38:58;4.35;;;1.90;;
14203;SDS011;7185;51.854;6.622;2023-01-08T00:41:30;3.25;;;2.15;;
14203;SDS011;7185;51.854;6.622;2023-01-08T00:44:03;3.50;;;1.98;;
14203;SDS011;7185;51.854;6.622;2023-01-08T00:46:36;2.95;;;1.75;;
14203;SDS011;7185;51.854;6.622;2023-01-08T00:49:08;4.90;;;1.90;;
14203;SDS011;7185;51.854;6.622;2023-01-08T00:51:40;5.20;;;2.10;;
14203;SDS011;7185;51.854;6.622;2023-01-08T00:54:11;3.90;;;1.70;;
14203;SDS011;7185;51.854;6.622;2023-01-08T00:56:43;4.22;;;2.15;;
14203;SDS011;7185;51.854;6.622;2023-01-08T00:59:15;4.97;;;2.25;;
14203;SDS011;7185;51.854;6.622;2023-01-08T01:01:48;5.60;;;2.35;;
14203;SDS011;7185;51.854;6.622;2023-01-08T01:04:19;4.43;;;2.22;;
14203;SDS011;7185;51.854;6.622;2023-01-08T01:06:51;5.00;;;2.20;;
14203;SDS011;7185;51.854;6.622;2023-01-08T01:09:23;3.60;;;2.25;;
14203;SDS011;7185;51.854;6.622;2023-01-08T01:11:54;4.13;;;2.20;;
14203;SDS011;7185;51.854;6.622;2023-01-08T01:14:26;4.03;;;2.10;;
14203;SDS011;7185;51.854;6.622;2023-01-08T01:16:59;10.43;;;2.70;;
14203;SDS011;7185;51.854;6.622;2023-01-08T01:19:31;3.83;;;2.33;;
14203;SDS011;7185;51.854;6.622;2023-01-08T01:22:02;4.07;;;2.20;;
14203;SDS011;7185;51.854;6.622;2023-01-08T01:24:34;4.20;;;2.10;;
14203;SDS011;7185;51.854;6.622;2023-01-08T01:27:06;3.78;;;2.17;;
14203;SDS011;7185;51.854;6.622;2023-01-08T01:29:37;3.83;;;2.40;;
14203;SDS011;7185;51.854;6.622;2023-01-08T01:32:10;4.85;;;2.30;;
14203;SDS011;7185;51.854;6.622;2023-01-08T01:34:42;4.40;;;1.90;;
14203;SDS011;7185;51.854;6.622;2023-01-08T01:37:14;4.30;;;2.03;;
14203;SDS011;7185;51.854;6.622;2023-01-08T01:39:46;4.45;;;2.80;;
14203;SDS011;7185;51.854;6.622;2023-01-08T01:42:18;3.33;;;2.10;;
14203;SDS011;7185;51.854;6.622;2023-01-08T01:45:05;4.10;;;2.17;;
14203;SDS011;7185;51.854;6.622;2023-01-08T01:47:46;3.75;;;2.05;;
14203;SDS011;7185;51.854;6.622;2023-01-08T01:50:20;5.50;;;2.25;;
14203;SDS011;7185;51.854;6.622;2023-01-08T01:52:57;5.07;;;2.15;;
14203;SDS011;7185;51.854;6.622;2023-01-08T01:55:32;5.07;;;2.28;;
14203;SDS011;7185;51.854;6.622;2023-01-08T01:58:07;5.05;;;2.10;;
14203;SDS011;7185;51.854;6.622;2023-01-08T02:00:43;5.68;;;2.60;;
14203;SDS011;7185;51.854;6.622;2023-01-08T02:03:19;4.00;;;2.15;;
14203;SDS011;7185;51.854;6.622;2023-01-08T02:05:53;6.80;;;2.15;;
14203;SDS011;7185;51.854;6.622;2023-01-08T02:08:32;4.40;;;2.63;;
14203;SDS011;7185;51.854;6.622;2023-01-08T02:11:10;4.93;;;1.90;;
14203;SDS011;7185;51.854;6.622;2023-01-08T02:13:45;3.92;;;2.47;;
14203;SDS011;7185;51.854;6.622;2023-01-08T02:16:25;5.57;;;2.42;;
14203;SDS011;7185;51.854;6.622;2023-01-08T02:19:15;5.10;;;2.42;;
14203;SDS011;7185;51.854;6.622;2023-01-08T02:21:56;5.05;;;2.50;;
14203;SDS011;7185;51.854;6.622;2023-01-08T02:24:39;4.97;;;2.53;;
14203;SDS011;7185;51.854;6.622;2023-01-08T02:27:20;8.63;;;2.70;;
14203;SDS011;7185;51.854;6.622;2023-01-08T02:29:55;5.72;;;2.75;;
14203;SDS011;7185;51.854;6.622;2023-01-08T02:32:31;10.43;;;3.05;;
14203;SDS011;7185;51.854;6.622;2023-01-08T02:35:04;6.03;;;2.58;;
14203;SDS011;7185;51.854;6.622;2023-01-08T02:37:37;6.80;;;2.72;;
14203;SDS011;7185;51.854;6.622;2023-01-08T02:40:13;7.80;;;2.78;;
14203;SDS011;7185;51.854;6.622;2023-01-08T02:42:54;5.80;;;2.65;;
14203;SDS011;7185;51.854;6.622;2023-01-08T02:45:33;5.53;;;2.70;;
14203;SDS011;7185;51.854;6.622;2023-01-08T02:48:10;9.55;;;2.67;;
14203;SDS011;7185;51.854;6.622;2023-01-08T02:50:45;7.20;;;3.03;;
14203;SDS011;7185;51.854;6.622;2023-01-08T02:53:23;5.38;;;2.72;;
14203;SDS011;7185;51.854;6.622;2023-01-08T02:55:58;7.30;;;2.67;;
14203;SDS011;7185;51.854;6.622;2023-01-08T02:58:35;7.35;;;3.25;;
14203;SDS011;7185;51.854;6.622;2023-01-08T03:01:09;7.22;;;2.60;;
14203;SDS011;7185;51.854;6.622;2023-01-08T03:03:43;6.10;;;2.67;;
14203;SDS011;7185;51.854;6.622;2023-01-08T03:06:19;6.32;;;2.63;;
14203;SDS011;7185;51.854;6.622;2023-01-08T03:08:51;5.95;;;2.78;;
14203;SDS011;7185;51.854;6.622;2023-01-08T03:11:25;4.82;;;2.83;;
14203;SDS011;7185;51.854;6.622;2023-01-08T03:14:03;7.38;;;2.75;;
14203;SDS011;7185;51.854;6.622;2023-01-08T03:16:40;7.57;;;3.45;;
14203;SDS011;7185;51.854;6.622;2023-01-08T03:19:17;8.02;;;3.72;;
14203;SDS011;7185;51.854;6.622;2023-01-08T03:21:51;9.30;;;3.80;;
14203;SDS011;7185;51.854;6.622;2023-01-08T03:24:25;6.05;;;3.00;;
14203;SDS011;7185;51.854;6.622;2023-01-08T03:27:00;4.78;;;2.63;;
14203;SDS011;7185;51.854;6.622;2023-01-08T03:29:36;7.45;;;3.25;;
14203;SDS011;7185;51.854;6.622;2023-01-08T03:32:10;7.78;;;4.10;;
14203;SDS011;7185;51.854;6.622;2023-01-08T03:34:45;4.28;;;2.42;;
14203;SDS011;7185;51.854;6.622;2023-01-08T03:37:21;6.05;;;2.78;;
14203;SDS011;7185;51.854;6.622;2023-01-08T03:39:56;10.30;;;2.67;;
14203;SDS011;7185;51.854;6.622;2023-01-08T03:42:33;6.95;;;3.13;;
14203;SDS011;7185;51.854;6.622;2023-01-08T03:45:06;3.65;;;2.30;;
14203;SDS011;7185;51.854;6.622;2023-01-08T03:47:38;5.70;;;2.40;;
14203;SDS011;7185;51.854;6.622;2023-01-08T03:50:13;7.25;;;2.63;;
14203;SDS011;7185;51.854;6.622;2023-01-08T03:52:48;6.35;;;2.60;;
14203;SDS011;7185;51.854;6.622;2023-01-08T03:55:19;5.60;;;3.00;;
14203;SDS011;7185;51.854;6.622;2023-01-08T03:57:51;7.40;;;2.88;;
14203;SDS011;7185;51.854;6.622;2023-01-08T04:00:24;3.05;;;1.58;;
14203;SDS011;7185;51.854;6.622;2023-01-08T04:02:56;1.75;;;1.02;;
14203;SDS011;7185;51.854;6.622;2023-01-08T04:05:27;1.95;;;0.60;;
14203;SDS011;7185;51.854;6.622;2023-01-08T04:07:59;1.30;;;0.60;;
14203;SDS011;7185;51.854;6.622;2023-01-08T04:10:31;1.67;;;0.60;;
14203;SDS011;7185;51.854;6.622;2023-01-08T04:13:02;1.50;;;0.65;;
14203;SDS011;7185;51.854;6.622;2023-01-08T04:15:35;2.42;;;0.90;;
14203;SDS011;7185;51.854;6.622;2023-01-08T04:18:07;2.25;;;0.73;;
14203;SDS011;7185;51.854;6.622;2023-01-08T04:20:38;1.25;;;0.63;;
14203;SDS011;7185;51.854;6.622;2023-01-08T04:23:10;2.33;;;0.60;;
14203;SDS011;7185;51.854;6.622;2023-01-08T04:25:41;1.27;;;0.68;;
14203;SDS011;7185;51.854;6.622;2023-01-08T04:28:13;1.73;;;0.77;;
14203;SDS011;7185;51.854;6.622;2023-01-08T04:30:46;4.03;;;0.77;;
14203;SDS011;7185;51.854;6.622;2023-01-08T04:33:18;4.22;;;1.00;;
14203;SDS011;7185;51.854;6.622;2023-01-08T04:35:49;2.45;;;0.77;;
14203;SDS011;7185;51.854;6.622;2023-01-08T04:38:21;3.40;;;0.90;;
14203;SDS011;7185;51.854;6.622;2023-01-08T04:40:54;2.10;;;0.85;;
14203;SDS011;7185;51.854;6.622;2023-01-08T04:43:27;2.10;;;0.68;;
14203;SDS011;7185;51.854;6.622;2023-01-08T04:46:02;3.08;;;0.90;;
14203;SDS011;7185;51.854;6.622;2023-01-08T04:48:36;2.95;;;0.60;;
14203;SDS011;7185;51.854;6.622;2023-01-08T04:51:08;3.03;;;1.00;;
14203;SDS011;7185;51.854;6.622;2023-01-08T04:53:39;4.28;;;0.88;;
14203;SDS011;7185;51.854;6.622;2023-01-08T04:56:11;3.92;;;0.70;;
14203;SDS011;7185;51.854;6.622;2023-01-08T04:58:43;2.90;;;0.55;;
14203;SDS011;7185;51.854;6.622;2023-01-08T05:01:17;3.05;;;0.60;;
14203;SDS011;7185;51.854;6.622;2023-01-08T05:03:52;2.10;;;0.80;;
14203;SDS011;7185;51.854;6.622;2023-01-08T05:06:24;2.78;;;0.50;;
14203;SDS011;7185;51.854;6.622;2023-01-08T05:08:56;2.33;;;0.57;;
14203;SDS011;7185;51.854;6.622;2023-01-08T05:11:28;4.30;;;0.60;;
14203;SDS011;7185;51.854;6.622;2023-01-08T05:13:59;2.53;;;0.90;;
14203;SDS011;7185;51.854;6.622;2023-01-08T05:16:32;1.48;;;0.60;;
14203;SDS011;7185;51.854;6.622;2023-01-08T05:19:04;3.38;;;0.80;;
14203;SDS011;7185;51.854;6.622;2023-01-08T05:21:35;5.65;;;0.70;;
14203;SDS011;7185;51.854;6.622;2023-01-08T05:24:07;2.15;;;0.88;;
14203;SDS011;7185;51.854;6.622;2023-01-08T05:26:39;2.67;;;0.47;;
14203;SDS011;7185;51.854;6.622;2023-01-08T05:29:11;1.70;;;0.70;;
14203;SDS011;7185;51.854;6.622;2023-01-08T05:31:44;1.92;;;0.80;;
14203;SDS011;7185;51.854;6.622;2023-01-08T05:34:16;5.40;;;0.90;;
14203;SDS011;7185;51.854;6.622;2023-01-08T05:36:47;2.90;;;0.85;;
14203;SDS011;7185;51.854;6.622;2023-01-08T05:39:19;1.63;;;0.88;;
14203;SDS011;7185;51.854;6.622;2023-01-08T05:41:50;2.00;;;0.75;;
14203;SDS011;7185;51.854;6.622;2023-01-08T05:44:22;2.65;;;1.20;;
14203;SDS011;7185;51.854;6.622;2023-01-08T05:46:55;4.60;;;1.00;;
14203;SDS011;7185;51.854;6.622;2023-01-08T05:49:27;3.85;;;1.73;;
14203;SDS011;7185;51.854;6.622;2023-01-08T05:51:58;4.40;;;1.60;;
14203;SDS011;7185;51.854;6.622;2023-01-08T05:54:30;3.72;;;1.60;;
14203;SDS011;7185;51.854;6.622;2023-01-08T05:57:01;6.07;;;1.83;;
14203;SDS011;7185;51.854;6.622;2023-01-08T05:59:33;3.53;;;1.50;;
14203;SDS011;7185;51.854;6.622;2023-01-08T06:02:06;4.60;;;1.42;;
14203;SDS011;7185;51.854;6.622;2023-01-08T06:04:38;3.22;;;1.40;;
14203;SDS011;7185;51.854;6.622;2023-01-08T06:07:09;3.28;;;1.40;;
14203;SDS011;7185;51.854;6.622;2023-01-08T06:09:41;8.18;;;2.42;;
14203;SDS011;7185;51.854;6.622;2023-01-08T06:12:12;3.90;;;2.08;;
14203;SDS011;7185;51.854;6.622;2023-01-08T06:14:44;4.43;;;1.38;;
14203;SDS011;7185;51.854;6.622;2023-01-08T06:17:17;3.17;;;1.55;;
14203;SDS011;7185;51.854;6.622;2023-01-08T06:19:49;2.45;;;1.25;;
14203;SDS011;7185;51.854;6.622;2023-01-08T06:22:20;3.30;;;1.33;;
14203;SDS011;7185;51.854;6.622;2023-01-08T06:24:52;3.53;;;1.33;;
14203;SDS011;7185;51.854;6.622;2023-01-08T06:27:23;3.45;;;1.40;;
14203;SDS011;7185;51.854;6.622;2023-01-08T06:29:55;3.40;;;1.42;;
14203;SDS011;7185;51.854;6.622;2023-01-08T06:32:28;3.75;;;1.15;;
14203;SDS011;7185;51.854;6.622;2023-01-08T06:34:59;4.18;;;1.55;;
14203;SDS011;7185;51.854;6.622;2023-01-08T06:37:31;5.00;;;1.60;;
14203;SDS011;7185;51.854;6.622;2023-01-08T06:40:03;6.07;;;1.42;;
14203;SDS011;7185;51.854;6.622;2023-01-08T06:42:35;6.90;;;1.80;;
14203;SDS011;7185;51.854;6.622;2023-01-08T06:45:07;2.60;;;1.65;;
14203;SDS011;7185;51.854;6.622;2023-01-08T06:47:40;3.50;;;1.30;;
14203;SDS011;7185;51.854;6.622;2023-01-08T06:50:12;4.28;;;2.00;;
14203;SDS011;7185;51.854;6.622;2023-01-08T06:52:43;5.40;;;1.98;;
14203;SDS011;7185;51.854;6.622;2023-01-08T06:55:23;4.20;;;1.38;;
14203;SDS011;7185;51.854;6.622;2023-01-08T06:57:55;5.03;;;1.70;;
14203;SDS011;7185;51.854;6.622;2023-01-08T07:00:28;3.17;;;1.48;;
14203;SDS011;7185;51.854;6.622;2023-01-08T07:03:04;2.63;;;1.50;;
14203;SDS011;7185;51.854;6.622;2023-01-08T07:05:36;4.55;;;1.48;;
14203;SDS011;7185;51.854;6.622;2023-01-08T07:08:09;3.15;;;1.40;;
14203;SDS011;7185;51.854;6.622;2023-01-08T07:10:42;4.78;;;1.38;;
14203;SDS011;7185;51.854;6.622;2023-01-08T07:13:14;4.40;;;1.40;;
14203;SDS011;7185;51.854;6.622;2023-01-08T07:15:46;3.65;;;1.38;;
14203;SDS011;7185;51.854;6.622;2023-01-08T07:18:19;3.08;;;1.15;;
14203;SDS011;7185;51.854;6.622;2023-01-08T07:20:50;3.45;;;1.10;;
14203;SDS011;7185;51.854;6.622;2023-01-08T07:23:22;3.65;;;1.20;;
14203;SDS011;7185;51.854;6.622;2023-01-08T07:25:53;4.65;;;2.22;;
14203;SDS011;7185;51.854;6.622;2023-01-08T07:28:25;3.22;;;1.10;;
14203;SDS011;7185;51.854;6.622;2023-01-08T07:31:00;4.85;;;1.50;;
14203;SDS011;7185;51.854;6.622;2023-01-08T07:33:34;4.30;;;1.00;;
14203;SDS011;7185;51.854;6.622;2023-01-08T07:36:06;4.45;;;1.10;;
14203;SDS011;7185;51.854;6.622;2023-01-08T07:38:39;2.53;;;0.98;;
14203;SDS011;7185;51.854;6.622;2023-01-08T07:41:10;3.63;;;0.80;;
14203;SDS011;7185;51.854;6.622;2023-01-08T07:43:43;4.10;;;1.15;;
14203;SDS011;7185;51.854;6.622;2023-01-08T07:46:14;2.05;;;0.60;;
14203;SDS011;7185;51.854;6.622;2023-01-08T07:48:48;1.90;;;0.90;;
14203;SDS011;7185;51.854;6.622;2023-01-08T07:51:19;1.58;;;0.77;;
14203;SDS011;7185;51.854;6.622;2023-01-08T07:53:51;2.75;;;0.68;;
14203;SDS011;7185;51.854;6.622;2023-01-08T07:56:25;2.42;;;0.70;;
14203;SDS011;7185;51.854;6.622;2023-01-08T07:58:56;1.95;;;0.65;;
14203;SDS011;7185;51.854;6.622;2023-01-08T08:01:28;1.80;;;0.75;;
14203;SDS011;7185;51.854;6.622;2023-01-08T08:04:01;2.53;;;0.73;;
14203;SDS011;7185;51.854;6.622;2023-01-08T08:06:32;8.23;;;1.55;;
14203;SDS011;7185;51.854;6.622;2023-01-08T08:09:04;8.65;;;1.42;;
14203;SDS011;7185;51.854;6.622;2023-01-08T08:11:36;5.10;;;1.10;;
14203;SDS011;7185;51.854;6.622;2023-01-08T08:14:07;6.15;;;1.17;;
14203;SDS011;7185;51.854;6.622;2023-01-08T08:16:39;4.72;;;0.88;;
14203;SDS011;7185;51.854;6.622;2023-01-08T08:19:12;4.30;;;1.17;;
14203;SDS011;7185;51.854;6.622;2023-01-08T08:21:44;8.13;;;1.27;;
14203;SDS011;7185;51.854;6.622;2023-01-08T08:24:16;4.90;;;1.45;;
14203;SDS011;7185;51.854;6.622;2023-01-08T08:26:47;6.95;;;1.65;;
14203;SDS011;7185;51.854;6.622;2023-01-08T08:29:19;7.80;;;0.90;;
14203;SDS011;7185;51.854;6.622;2023-01-08T08:31:51;8.80;;;1.30;;
14203;SDS011;7185;51.854;6.622;2023-01-08T08:34:23;2.35;;;0.80;;
14203;SDS011;7185;51.854;6.622;2023-01-08T08:36:55;7.78;;;1.10;;
14203;SDS011;7185;51.854;6.622;2023-01-08T08:39:27;5.70;;;1.10;;
14203;SDS011;7185;51.854;6.622;2023-01-08T08:41:58;8.50;;;1.33;;
14203;SDS011;7185;51.854;6.622;2023-01-08T08:44:30;3.97;;;0.80;;
14203;SDS011;7185;51.854;6.622;2023-01-08T08:47:01;5.22;;;1.10;;
14203;SDS011;7185;51.854;6.622;2023-01-08T08:49:38;8.50;;;1.13;;
14203;SDS011;7185;51.854;6.622;2023-01-08T08:52:10;6.70;;;1.02;;
14203;SDS011;7185;51.854;6.622;2023-01-08T08:54:41;3.13;;;1.00;;
14203;SDS011;7185;51.854;6.622;2023-01-08T08:57:13;4.68;;;1.00;;
14203;SDS011;7185;51.854;6.622;2023-01-08T08:59:44;3.80;;;1.35;;
14203;SDS011;7185;51.854;6.622;2023-01-08T09:02:16;6.40;;;1.25;;
14203;SDS011;7185;51.854;6.622;2023-01-08T09:04:49;2.95;;;1.63;;
14203;SDS011;7185;51.854;6.622;2023-01-08T09:07:20;5.85;;;1.10;;
14203;SDS011;7185;51.854;6.622;2023-01-08T09:09:52;6.18;;;1.23;;
14203;SDS011;7185;51.854;6.622;2023-01-08T09:12:24;8.38;;;1.75;;
14203;SDS011;7185;51.854;6.622;2023-01-08T09:14:55;4.93;;;1.95;;
14203;SDS011;7185;51.854;6.622;2023-01-08T09:17:35;7.20;;;1.40;;
14203;SDS011;7185;51.854;6.622;2023-01-08T09:22:48;5.88;;;1.52;;
14203;SDS011;7185;51.854;6.622;2023-01-08T09:25:19;5.03;;;1.30;;
14203;SDS011;7185;51.854;6.622;2023-01-08T09:27:57;4.32;;;1.17;;
14203;SDS011;7185;51.854;6.622;2023-01-08T09:30:29;6.43;;;1.30;;
14203;SDS011;7185;51.854;6.622;2023-01-08T09:33:01;5.15;;;1.25;;
14203;SDS011;7185;51.854;6.622;2023-01-08T09:35:35;4.72;;;1.27;;
14203;SDS011;7185;51.854;6.622;2023-01-08T09:38:08;5.07;;;1.10;;
14203;SDS011;7185;51.854;6.622;2023-01-08T09:40:40;9.20;;;1.65;;
14203;SDS011;7185;51.854;6.622;2023-01-08T09:43:18;4.80;;;1.40;;
14203;SDS011;7185;51.854;6.622;2023-01-08T09:45:54;7.82;;;1.20;;
14203;SDS011;7185;51.854;6.622;2023-01-08T09:48:28;6.50;;;1.33;;
14203;SDS011;7185;51.854;6.622;2023-01-08T09:51:03;9.98;;;1.63;;
14203;SDS011;7185;51.854;6.622;2023-01-08T09:53:36;6.63;;;2.30;;
14203;SDS011;7185;51.854;6.622;2023-01-08T09:56:10;6.50;;;1.40;;
14203;SDS011;7185;51.854;6.622;2023-01-08T09:58:45;9.23;;;1.73;;
14203;SDS011;7185;51.854;6.622;2023-01-08T10:01:20;4.50;;;1.10;;
14203;SDS011;7185;51.854;6.622;2023-01-08T10:03:55;5.03;;;1.30;;
14203;SDS011;7185;51.854;6.622;2023-01-08T10:06:29;8.95;;;1.65;;
14203;SDS011;7185;51.854;6.622;2023-01-08T10:09:03;6.43;;;1.42;;
14203;SDS011;7185;51.854;6.622;2023-01-08T10:11:37;8.60;;;1.60;;
14203;SDS011;7185;51.854;6.622;2023-01-08T10:14:15;8.30;;;1.50;;
14203;SDS011;7185;51.854;6.622;2023-01-08T10:16:52;5.93;;;1.73;;
14203;SDS011;7185;51.854;6.622;2023-01-08T10:19:27;5.90;;;1.50;;
14203;SDS011;7185;51.854;6.622;2023-01-08T10:21:59;8.05;;;1.48;;
14203;SDS011;7185;51.854;6.622;2023-01-08T10:24:33;23.05;;;7.70;;
14203;SDS011;7185;51.854;6.622;2023-01-08T10:27:06;8.85;;;3.63;;
14203;SDS011;7185;51.854;6.622;2023-01-08T10:29:39;7.65;;;1.50;;
14203;SDS011;7185;51.854;6.622;2023-01-08T10:32:12;9.30;;;1.58;;
14203;SDS011;7185;51.854;6.622;2023-01-08T10:34:46;4.53;;;1.48;;
14203;SDS011;7185;51.854;6.622;2023-01-08T10:37:22;6.75;;;1.70;;
14203;SDS011;7185;51.854;6.622;2023-01-08T10:40:01;6.68;;;1.60;;
14203;SDS011;7185;51.854;6.622;2023-01-08T10:42:37;6.63;;;1.50;;
14203;SDS011;7185;51.854;6.622;2023-01-08T10:45:10;5.43;;;1.15;;
14203;SDS011;7185;51.854;6.622;2023-01-08T10:47:49;11.55;;;2.15;;
14203;SDS011;7185;51.854;6.622;2023-01-08T10:50:23;7.47;;;1.90;;
14203;SDS011;7185;51.854;6.622;2023-01-08T10:52:58;7.15;;;1.50;;
14203;SDS011;7185;51.854;6.622;2023-01-08T10:55:32;6.03;;;1.70;;
14203;SDS011;7185;51.854;6.622;2023-01-08T10:58:12;6.43;;;2.00;;
14203;SDS011;7185;51.854;6.622;2023-01-08T11:00:44;7.72;;;1.45;;
14203;SDS011;7185;51.854;6.622;2023-01-08T11:03:18;8.90;;;1.75;;
14203;SDS011;7185;51.854;6.622;2023-01-08T11:05:56;5.85;;;1.55;;
14203;SDS011;7185;51.854;6.622;2023-01-08T11:08:28;7.90;;;1.73;;
14203;SDS011;7185;51.854;6.622;2023-01-08T11:11:01;6.88;;;1.60;;
14203;SDS011;7185;51.854;6.622;2023-01-08T11:13:33;6.22;;;1.83;;
14203;SDS011;7185;51.854;6.622;2023-01-08T11:16:05;5.85;;;1.58;;
14203;SDS011;7185;51.854;6.622;2023-01-08T11:18:41;7.75;;;1.70;;
14203;SDS011;7185;51.854;6.622;2023-01-08T11:21:18;5.30;;;1.40;;
14203;SDS011;7185;51.854;6.622;2023-01-08T11:23:59;10.90;;;2.13;;
14203;SDS011;7185;51.854;6.622;2023-01-08T11:26:36;7.43;;;1.50;;
14203;SDS011;7185;51.854;6.622;2023-01-08T11:29:11;5.70;;;1.10;;
14203;SDS011;7185;51.854;6.622;2023-01-08T11:31:48;7.03;;;1.30;;
14203;SDS011;7185;51.854;6.622;2023-01-08T11:34:25;7.97;;;1.45;;
14203;SDS011;7185;51.854;6.622;2023-01-08T11:37:03;6.85;;;1.35;;
14203;SDS011;7185;51.854;6.622;2023-01-08T11:39:42;6.78;;;1.60;;
14203;SDS011;7185;51.854;6.622;2023-01-08T11:42:19;3.85;;;1.35;;
14203;SDS011;7185;51.854;6.622;2023-01-08T11:45:15;4.25;;;1.30;;
14203;SDS011;7185;51.854;6.622;2023-01-08T11:48:16;6.20;;;1.60;;
14203;SDS011;7185;51.854;6.622;2023-01-08T11:51:04;7.30;;;1.70;;
14203;SDS011;7185;51.854;6.622;2023-01-08T11:53:48;6.72;;;2.20;;
14203;SDS011;7185;51.854;6.622;2023-01-08T11:56:29;7.88;;;1.67;;
14203;SDS011;7185;51.854;6.622;2023-01-08T11:59:16;5.93;;;1.90;;
14203;SDS011;7185;51.854;6.622;2023-01-08T12:01:54;4.25;;;1.42;;
14203;SDS011;7185;51.854;6.622;2023-01-08T12:04:36;5.00;;;1.48;;
14203;SDS011;7185;51.854;6.622;2023-01-08T12:07:25;5.65;;;1.95;;
14203;SDS011;7185;51.854;6.622;2023-01-08T12:10:09;7.88;;;3.25;;
14203;SDS011;7185;51.854;6.622;2023-01-08T12:12:47;7.90;;;2.25;;
14203;SDS011;7185;51.854;6.622;2023-01-08T12:15:30;3.35;;;1.30;;
14203;SDS011;7185;51.854;6.622;2023-01-08T12:18:16;4.15;;;1.35;;
14203;SDS011;7185;51.854;6.622;2023-01-08T12:20:57;10.67;;;1.97;;
14203;SDS011;7185;51.854;6.622;2023-01-08T12:23:40;7.22;;;2.08;;
14203;SDS011;7185;51.854;6.622;2023-01-08T12:26:28;6.93;;;2.63;;
14203;SDS011;7185;51.854;6.622;2023-01-08T12:29:18;7.55;;;2.35;;
14203;SDS011;7185;51.854;6.622;2023-01-08T12:32:04;5.75;;;1.60;;
14203;SDS011;7185;51.854;6.622;2023-01-08T12:34:48;4.60;;;1.70;;
14203;SDS011;7185;51.854;6.622;2023-01-08T12:37:26;6.45;;;2.20;;
14203;SDS011;7185;51.854;6.622;2023-01-08T12:40:06;7.95;;;3.42;;
14203;SDS011;7185;51.854;6.622;2023-01-08T12:42:44;9.20;;;3.40;;
14203;SDS011;7185;51.854;6.622;2023-01-08T12:45:18;6.38;;;2.50;;
14203;SDS011;7185;51.854;6.622;2023-01-08T12:47:58;5.57;;;1.48;;
14203;SDS011;7185;51.854;6.622;2023-01-08T12:50:36;8.57;;;2.25;;
14203;SDS011;7185;51.854;6.622;2023-01-08T12:53:17;5.93;;;2.05;;
14203;SDS011;7185;51.854;6.622;2023-01-08T12:55:58;5.43;;;1.67;;
14203;SDS011;7185;51.854;6.622;2023-01-08T12:58:38;4.07;;;1.33;;
14203;SDS011;7185;51.854;6.622;2023-01-08T13:01:24;5.05;;;1.60;;
14203;SDS011;7185;51.854;6.622;2023-01-08T13:04:03;3.80;;;1.40;;
14203;SDS011;7185;51.854;6.622;2023-01-08T13:06:47;3.95;;;1.40;;
14203;SDS011;7185;51.854;6.622;2023-01-08T13:09:21;4.20;;;1.30;;
14203;SDS011;7185;51.854;6.622;2023-01-08T13:11:55;3.72;;;1.20;;
14203;SDS011;7185;51.854;6.622;2023-01-08T13:14:28;4.22;;;1.50;;
14203;SDS011;7185;51.854;6.622;2023-01-08T13:17:15;4.13;;;1.40;;
14203;SDS011;7185;51.854;6.622;2023-01-08T13:19:52;3.13;;;1.40;;
14203;SDS011;7185;51.854;6.622;2023-01-08T13:22:27;5.10;;;1.50;;
14203;SDS011;7185;51.854;6.622;2023-01-08T13:25:07;3.33;;;1.25;;
14203;SDS011;7185;51.854;6.622;2023-01-08T13:27:41;4.22;;;1.10;;
14203;SDS011;7185;51.854;6.622;2023-01-08T13:36:15;4.85;;;1.23;;
14203;SDS011;7185;51.854;6.622;2023-01-08T13:39:00;4.53;;;1.20;;
14203;SDS011;7185;51.854;6.622;2023-01-08T13:41:36;3.50;;;1.23;;
14203;SDS011;7185;51.854;6.622;2023-01-08T13:44:15;5.30;;;1.45;;
14203;SDS011;7185;51.854;6.622;2023-01-08T13:46:52;6.03;;;1.40;;
14203;SDS011;7185;51.854;6.622;2023-01-08T13:49:26;8.02;;;1.33;;
14203;SDS011;7185;51.854;6.622;2023-01-08T13:52:04;2.60;;;1.40;;
14203;SDS011;7185;51.854;6.622;2023-01-08T13:54:36;3.65;;;1.23;;
14203;SDS011;7185;51.854;6.622;2023-01-08T13:57:11;3.67;;;1.20;;
14203;SDS011;7185;51.854;6.622;2023-01-08T13:59:47;3.00;;;0.95;;
14203;SDS011;7185;51.854;6.622;2023-01-08T14:02:26;4.70;;;1.10;;
14203;SDS011;7185;51.854;6.622;2023-01-08T14:05:00;3.47;;;1.10;;
14203;SDS011;7185;51.854;6.622;2023-01-08T14:07:36;5.63;;;1.13;;
14203;SDS011;7185;51.854;6.622;2023-01-08T14:10:10;4.60;;;0.90;;
14203;SDS011;7185;51.854;6.622;2023-01-08T14:12:43;2.38;;;0.98;;
14203;SDS011;7185;51.854;6.622;2023-01-08T14:15:19;4.00;;;1.00;;
14203;SDS011;7185;51.854;6.622;2023-01-08T14:17:53;3.45;;;0.80;;
14203;SDS011;7185;51.854;6.622;2023-01-08T14:20:28;3.70;;;1.30;;
14203;SDS011;7185;51.854;6.622;2023-01-08T14:23:07;4.97;;;1.40;;
14203;SDS011;7185;51.854;6.622;2023-01-08T14:25:40;2.13;;;1.00;;
14203;SDS011;7185;51.854;6.622;2023-01-08T14:28:14;4.93;;;1.73;;
14203;SDS011;7185;51.854;6.622;2023-01-08T14:30:47;3.85;;;1.20;;
14203;SDS011;7185;51.854;6.622;2023-01-08T14:33:21;2.25;;;0.95;;
14203;SDS011;7185;51.854;6.622;2023-01-08T14:35:56;4.27;;;1.03;;
14203;SDS011;7185;51.854;6.622;2023-01-08T14:38:30;3.50;;;0.85;;
14203;SDS011;7185;51.854;6.622;2023-01-08T14:41:02;4.18;;;0.90;;
14203;SDS011;7185;51.854;6.622;2023-01-08T14:43:38;4.70;;;1.00;;
14203;SDS011;7185;51.854;6.622;2023-01-08T14:46:14;3.97;;;1.23;;
14203;SDS011;7185;51.854;6.622;2023-01-08T14:48:51;4.25;;;1.13;;
14203;SDS011;7185;51.854;6.622;2023-01-08T14:51:25;4.85;;;1.00;;
14203;SDS011;7185;51.854;6.622;2023-01-08T14:54:01;3.45;;;0.98;;
14203;SDS011;7185;51.854;6.622;2023-01-08T14:56:35;4.05;;;1.00;;
14203;SDS011;7185;51.854;6.622;2023-01-08T14:59:07;3.55;;;1.05;;
14203;SDS011;7185;51.854;6.622;2023-01-08T15:01:41;7.78;;;1.10;;
14203;SDS011;7185;51.854;6.622;2023-01-08T15:04:13;5.55;;;1.00;;
14203;SDS011;7185;51.854;6.622;2023-01-08T15:06:47;7.43;;;1.10;;
14203;SDS011;7185;51.854;6.622;2023-01-08T15:09:23;3.05;;;1.27;;
14203;SDS011;7185;51.854;6.622;2023-01-08T15:11:59;7.43;;;1.08;;
14203;SDS011;7185;51.854;6.622;2023-01-08T15:14:32;6.78;;;1.25;;
14203;SDS011;7185;51.854;6.622;2023-01-08T15:17:07;3.55;;;1.20;;
14203;SDS011;7185;51.854;6.622;2023-01-08T15:19:43;4.65;;;1.00;;
14203;SDS011;7185;51.854;6.622;2023-01-08T15:22:20;2.75;;;1.10;;
14203;SDS011;7185;51.854;6.622;2023-01-08T15:24:56;2.70;;;0.93;;
14203;SDS011;7185;51.854;6.622;2023-01-08T15:27:29;3.58;;;1.00;;
14203;SDS011;7185;51.854;6.622;2023-01-08T15:30:04;3.80;;;1.00;;
14203;SDS011;7185;51.854;6.622;2023-01-08T15:32:38;6.55;;;0.93;;
14203;SDS011;7185;51.854;6.622;2023-01-08T15:35:12;6.45;;;1.15;;
14203;SDS011;7185;51.854;6.622;2023-01-08T15:37:44;6.97;;;1.10;;
14203;SDS011;7185;51.854;6.622;2023-01-08T15:40:17;5.00;;;1.13;;
14203;SDS011;7185;51.854;6.622;2023-01-08T15:42:49;2.17;;;1.00;;
14203;SDS011;7185;51.854;6.622;2023-01-08T15:45:38;7.03;;;1.30;;
14203;SDS011;7185;51.854;6.622;2023-01-08T15:48:11;3.70;;;1.13;;
14203;SDS011;7185;51.854;6.622;2023-01-08T15:50:43;4.70;;;1.00;;
14203;SDS011;7185;51.854;6.622;2023-01-08T15:53:16;5.97;;;1.17;;